createdAt,value
2017-05-30T00:00:07.757Z,952.47
2017-05-30T00:01:07.416Z,952.46
2017-05-30T00:02:08.094Z,952.46
2017-05-30T00:03:07.829Z,952.48
2017-05-30T00:04:07.388Z,952.48
2017-05-30T00:05:08.288Z,952.42
2017-05-30T00:06:07.749Z,952.46
2017-05-30T00:07:07.341Z,952.44
2017-05-30T00:08:08.003Z,952.46
2017-05-30T00:09:07.644Z,952.47
2017-05-30T00:10:07.319Z,952.45
2017-05-30T00:11:07.918Z,952.44
2017-05-30T00:12:07.545Z,952.44
2017-05-30T00:13:08.243Z,952.44
2017-05-30T00:14:07.855Z,952.43
2017-05-30T00:15:07.591Z,952.44
2017-05-30T00:16:08.188Z,952.45
2017-05-30T00:17:07.958Z,952.44
2017-05-30T00:18:07.692Z,952.45
2017-05-30T00:19:07.327Z,952.45
2017-05-30T00:20:08.030Z,952.42
2017-05-30T00:21:07.765Z,952.45
2017-05-30T00:22:07.256Z,952.43
2017-05-30T00:23:07.909Z,952.45
2017-05-30T00:24:07.576Z,952.41
2017-05-30T00:25:07.269Z,952.41
2017-05-30T00:26:07.922Z,952.42
2017-05-30T00:27:07.672Z,952.42
2017-05-30T00:28:07.285Z,952.42
2017-05-30T00:29:07.922Z,952.43
2017-05-30T00:30:07.634Z,952.44
2017-05-30T00:31:07.247Z,952.45
2017-05-30T00:32:07.898Z,952.45
2017-05-30T00:33:07.580Z,952.46
2017-05-30T00:34:07.221Z,952.45
2017-05-30T00:35:07.888Z,952.53
2017-05-30T00:36:07.553Z,952.56
2017-05-30T00:37:08.154Z,952.60
2017-05-30T00:38:07.808Z,952.76
2017-05-30T00:39:07.952Z,952.88
2017-05-30T00:40:07.665Z,952.90
2017-05-30T00:41:07.325Z,952.89
2017-05-30T00:42:07.944Z,952.95
2017-05-30T00:43:07.536Z,952.91
2017-05-30T00:44:07.232Z,952.95
2017-05-30T00:45:07.911Z,952.87
2017-05-30T00:46:07.542Z,952.85
2017-05-30T00:47:08.208Z,952.85
2017-05-30T00:48:07.809Z,952.87
2017-05-30T00:49:07.494Z,952.90
2017-05-30T00:50:08.166Z,952.94
2017-05-30T00:51:07.889Z,952.94
2017-05-30T00:52:07.484Z,952.94
2017-05-30T00:53:08.115Z,953.02
2017-05-30T00:54:07.817Z,952.98
2017-05-30T00:55:07.482Z,953.00
2017-05-30T00:56:08.128Z,953.00
2017-05-30T00:57:07.767Z,952.99
2017-05-30T00:58:07.387Z,952.98
2017-05-30T00:59:08.046Z,952.97
2017-05-30T01:00:07.774Z,952.97
2017-05-30T01:01:07.393Z,952.96
2017-05-30T01:02:08.053Z,953.00
2017-05-30T01:03:07.709Z,952.95
2017-05-30T01:04:07.406Z,952.92
2017-05-30T01:05:08.088Z,952.95
2017-05-30T01:06:07.756Z,952.92
2017-05-30T01:07:07.318Z,952.89
2017-05-30T01:08:07.985Z,952.90
2017-05-30T01:09:07.653Z,952.88
2017-05-30T01:10:07.337Z,952.88
2017-05-30T01:11:07.955Z,952.91
2017-05-30T01:12:07.597Z,952.88
2017-05-30T01:13:07.172Z,952.89
2017-05-30T01:14:07.885Z,952.88
2017-05-30T01:15:07.541Z,952.91
2017-05-30T01:16:08.205Z,952.90
2017-05-30T01:17:07.928Z,952.88
2017-05-30T01:18:07.658Z,952.90
2017-05-30T01:19:07.261Z,952.92
2017-05-30T01:20:08.029Z,952.91
2017-05-30T01:21:07.679Z,952.91
2017-05-30T01:22:07.232Z,952.90
2017-05-30T01:23:07.874Z,952.92
2017-05-30T01:24:07.576Z,952.89
2017-05-30T01:25:07.262Z,952.94
2017-05-30T01:26:07.873Z,952.89
2017-05-30T01:27:07.541Z,952.91
2017-05-30T01:28:08.181Z,952.95
2017-05-30T01:29:07.836Z,952.93
2017-05-30T01:30:07.522Z,952.94
2017-05-30T01:31:08.155Z,952.93
2017-05-30T01:32:07.815Z,952.92
2017-05-30T01:33:07.482Z,952.94
2017-05-30T01:34:08.130Z,952.93
2017-05-30T01:35:07.811Z,952.94
2017-05-30T01:36:07.486Z,952.95
2017-05-30T01:37:08.092Z,952.89
2017-05-30T01:38:07.713Z,952.90
2017-05-30T01:39:07.337Z,952.88
2017-05-30T01:40:08.071Z,952.86
2017-05-30T01:41:07.651Z,952.85
2017-05-30T01:42:07.305Z,952.84
2017-05-30T01:43:07.951Z,952.81
2017-05-30T01:44:07.656Z,952.81
2017-05-30T01:45:07.363Z,952.83
2017-05-30T01:46:07.964Z,952.77
2017-05-30T01:47:07.613Z,952.80
2017-05-30T01:48:07.252Z,952.81
2017-05-30T01:49:07.928Z,952.84
2017-05-30T01:50:07.651Z,952.86
2017-05-30T01:51:07.228Z,952.83
2017-05-30T01:52:07.910Z,952.83
2017-05-30T01:53:07.502Z,952.85
2017-05-30T01:54:08.184Z,952.83
2017-05-30T01:55:07.874Z,952.85
2017-05-30T01:56:07.484Z,952.84
2017-05-30T01:57:08.174Z,952.86
2017-05-30T01:58:07.830Z,952.88
2017-05-30T01:59:07.475Z,952.87
2017-05-30T02:00:08.182Z,952.88
2017-05-30T02:01:07.834Z,952.89
2017-05-30T02:02:07.430Z,952.90
2017-05-30T02:03:08.092Z,952.89
2017-05-30T02:04:07.717Z,952.89
2017-05-30T02:05:07.425Z,952.87
2017-05-30T02:06:08.053Z,952.87
2017-05-30T02:07:07.703Z,952.88
2017-05-30T02:08:07.365Z,952.93
2017-05-30T02:09:08.011Z,952.88
2017-05-30T02:10:07.683Z,952.89
2017-05-30T02:11:07.281Z,952.91
2017-05-30T02:12:08.072Z,952.94
2017-05-30T02:13:07.632Z,952.94
2017-05-30T02:14:07.437Z,952.94
2017-05-30T02:15:08.020Z,952.92
2017-05-30T02:16:07.623Z,952.94
2017-05-30T02:17:07.326Z,952.93
2017-05-30T02:18:08.053Z,952.95
2017-05-30T02:19:07.738Z,952.96
2017-05-30T02:20:07.437Z,952.93
2017-05-30T02:21:08.060Z,952.95
2017-05-30T02:22:07.691Z,952.96
2017-05-30T02:23:07.304Z,952.94
2017-05-30T02:24:07.928Z,952.93
2017-05-30T02:25:07.661Z,952.93
2017-05-30T02:26:07.240Z,952.94
2017-05-30T02:27:07.883Z,952.87
2017-05-30T02:28:07.550Z,952.89
2017-05-30T02:29:07.213Z,952.89
2017-05-30T02:30:07.922Z,952.89
2017-05-30T02:31:07.558Z,952.89
2017-05-30T02:32:07.213Z,952.88
2017-05-30T02:33:07.896Z,952.89
2017-05-30T02:34:07.522Z,952.92
2017-05-30T02:35:08.217Z,952.92
2017-05-30T02:36:07.886Z,952.91
2017-05-30T02:37:07.507Z,952.93
2017-05-30T02:38:08.146Z,952.93
2017-05-30T02:39:07.796Z,952.91
2017-05-30T02:40:07.487Z,952.96
2017-05-30T02:41:08.085Z,952.93
2017-05-30T02:42:07.715Z,952.91
2017-05-30T02:43:07.363Z,952.95
2017-05-30T02:44:08.109Z,952.91
2017-05-30T02:45:07.751Z,952.91
2017-05-30T02:46:07.359Z,952.92
2017-05-30T02:47:08.003Z,952.87
2017-05-30T02:48:07.659Z,952.92
2017-05-30T02:49:07.312Z,952.89
2017-05-30T02:50:08.038Z,952.92
2017-05-30T02:51:07.659Z,952.89
2017-05-30T02:52:07.349Z,952.88
2017-05-30T02:53:07.971Z,952.87
2017-05-30T02:54:07.622Z,952.92
2017-05-30T02:55:07.396Z,952.96
2017-05-30T02:56:07.927Z,952.94
2017-05-30T02:57:07.582Z,952.90
2017-05-30T02:58:07.213Z,952.97
2017-05-30T02:59:07.905Z,952.90
2017-05-30T03:00:07.575Z,952.91
2017-05-30T03:01:08.195Z,952.93
2017-05-30T03:02:07.823Z,952.91
2017-05-30T03:03:07.460Z,952.92
2017-05-30T03:04:08.124Z,952.93
2017-05-30T03:05:07.812Z,952.98
2017-05-30T03:06:07.510Z,952.98
2017-05-30T03:07:08.130Z,952.99
2017-05-30T03:08:07.772Z,953.00
2017-05-30T03:09:07.426Z,952.99
2017-05-30T03:10:08.099Z,952.98
2017-05-30T03:11:07.809Z,953.03
2017-05-30T03:12:07.327Z,953.02
2017-05-30T03:13:08.006Z,953.03
2017-05-30T03:14:13.182Z,953.03
2017-05-30T03:15:07.366Z,953.06
2017-05-30T03:16:07.977Z,953.07
2017-05-30T03:17:07.674Z,953.07
2017-05-30T03:18:07.436Z,953.10
2017-05-30T03:19:08.108Z,953.11
2017-05-30T03:20:07.783Z,953.09
2017-05-30T03:21:07.487Z,953.07
2017-05-30T03:22:08.068Z,953.09
2017-05-30T03:23:07.699Z,953.08
2017-05-30T03:24:07.371Z,953.12
2017-05-30T03:25:08.030Z,953.18
2017-05-30T03:26:07.621Z,953.13
2017-05-30T03:27:07.260Z,953.12
2017-05-30T03:28:07.873Z,953.12
2017-05-30T03:29:07.610Z,953.21
2017-05-30T03:30:07.272Z,953.16
2017-05-30T03:31:07.814Z,953.18
2017-05-30T03:32:07.497Z,953.22
2017-05-30T03:33:08.184Z,953.28
2017-05-30T03:34:07.823Z,953.28
2017-05-30T03:35:07.513Z,953.25
2017-05-30T03:36:08.181Z,953.27
2017-05-30T03:37:07.773Z,953.25
2017-05-30T03:38:07.427Z,953.27
2017-05-30T03:39:08.099Z,953.32
2017-05-30T03:40:07.917Z,953.32
2017-05-30T03:41:07.394Z,953.31
2017-05-30T03:42:08.072Z,953.27
2017-05-30T03:43:07.660Z,953.28
2017-05-30T03:44:07.388Z,953.34
2017-05-30T03:45:08.061Z,953.37
2017-05-30T03:46:07.673Z,953.36
2017-05-30T03:47:07.354Z,953.34
2017-05-30T03:48:07.953Z,953.36
2017-05-30T03:49:07.658Z,953.39
2017-05-30T03:50:07.343Z,953.42
2017-05-30T03:51:07.964Z,953.39
2017-05-30T03:52:07.577Z,953.44
2017-05-30T03:53:07.237Z,953.47
2017-05-30T03:54:07.921Z,953.45
2017-05-30T03:55:07.589Z,953.46
2017-05-30T03:56:07.213Z,953.45
2017-05-30T03:57:07.900Z,953.42
2017-05-30T03:58:07.508Z,953.44
2017-05-30T03:59:07.231Z,953.48
2017-05-30T04:00:07.912Z,953.45
2017-05-30T04:01:07.526Z,953.53
2017-05-30T04:02:08.250Z,953.51
2017-05-30T04:03:07.828Z,953.52
2017-05-30T04:04:07.465Z,953.49
2017-05-30T04:05:08.152Z,953.56
2017-05-30T04:06:07.883Z,953.54
2017-05-30T04:07:07.410Z,953.56
2017-05-30T04:08:07.224Z,953.59
2017-05-30T04:09:07.874Z,953.60
2017-05-30T04:10:07.664Z,953.61
2017-05-30T04:11:08.199Z,953.59
2017-05-30T04:12:07.793Z,953.63
2017-05-30T04:13:07.404Z,953.66
2017-05-30T04:14:08.145Z,953.70
2017-05-30T04:15:07.821Z,953.70
2017-05-30T04:16:07.453Z,953.68
2017-05-30T04:17:08.156Z,953.69
2017-05-30T04:18:07.876Z,953.69
2017-05-30T04:19:07.548Z,953.70
2017-05-30T04:20:07.288Z,953.71
2017-05-30T04:21:07.998Z,953.69
2017-05-30T04:22:07.598Z,953.70
2017-05-30T04:23:07.254Z,953.68
2017-05-30T04:24:07.882Z,953.70
2017-05-30T04:25:10.127Z,953.71
2017-05-30T04:26:07.956Z,953.71
2017-05-30T04:27:07.606Z,953.76
2017-05-30T04:28:07.218Z,953.69
2017-05-30T04:29:07.939Z,953.72
2017-05-30T04:30:07.620Z,953.73
2017-05-30T04:31:07.287Z,953.71
2017-05-30T04:32:07.867Z,953.72
2017-05-30T04:33:07.503Z,953.76
2017-05-30T04:34:08.178Z,953.77
2017-05-30T04:35:07.864Z,953.79
2017-05-30T04:36:07.529Z,953.75
2017-05-30T04:37:08.134Z,953.80
2017-05-30T04:38:07.829Z,953.70
2017-05-30T04:39:07.446Z,953.71
2017-05-30T04:40:08.089Z,953.81
2017-05-30T04:41:07.766Z,953.79
2017-05-30T04:42:07.384Z,953.74
2017-05-30T04:43:08.030Z,953.75
2017-05-30T04:44:07.813Z,953.69
2017-05-30T04:45:07.459Z,953.74
2017-05-30T04:46:08.165Z,953.72
2017-05-30T04:47:07.742Z,953.71
2017-05-30T04:48:07.430Z,953.71
2017-05-30T04:49:08.086Z,953.74
2017-05-30T04:50:07.727Z,953.67
2017-05-30T04:51:07.431Z,953.67
2017-05-30T04:52:08.043Z,953.68
2017-05-30T04:53:07.689Z,953.75
2017-05-30T04:54:07.328Z,953.70
2017-05-30T04:55:08.009Z,953.73
2017-05-30T04:56:07.691Z,953.76
2017-05-30T04:57:07.254Z,953.78
2017-05-30T04:58:07.840Z,953.78
2017-05-30T04:59:07.490Z,953.79
2017-05-30T05:00:08.179Z,953.80
2017-05-30T05:01:07.879Z,953.80
2017-05-30T05:02:07.488Z,953.81
2017-05-30T05:03:08.193Z,953.82
2017-05-30T05:04:07.804Z,953.81
2017-05-30T05:05:07.426Z,953.85
2017-05-30T05:06:08.224Z,953.83
2017-05-30T05:07:07.743Z,953.82
2017-05-30T05:08:07.482Z,953.85
2017-05-30T05:09:08.108Z,953.86
2017-05-30T05:10:07.864Z,953.88
2017-05-30T05:11:07.454Z,953.87
2017-05-30T05:12:08.070Z,953.83
2017-05-30T05:13:07.733Z,953.86
2017-05-30T05:14:07.450Z,953.81
2017-05-30T05:15:08.050Z,953.82
2017-05-30T05:16:07.777Z,953.82
2017-05-30T05:17:07.444Z,953.85
2017-05-30T05:18:08.201Z,953.88
2017-05-30T05:19:07.865Z,953.82
2017-05-30T05:20:07.511Z,953.84
2017-05-30T05:21:08.270Z,953.83
2017-05-30T05:22:07.815Z,953.87
2017-05-30T05:23:07.480Z,953.87
2017-05-30T05:24:08.103Z,953.85
2017-05-30T05:25:07.774Z,953.85
2017-05-30T05:26:07.479Z,953.89
2017-05-30T05:27:08.092Z,953.89
2017-05-30T05:28:07.742Z,953.92
2017-05-30T05:29:07.393Z,953.95
2017-05-30T05:30:08.007Z,953.90
2017-05-30T05:31:07.704Z,953.86
2017-05-30T05:32:07.311Z,953.90
2017-05-30T05:33:07.999Z,953.92
2017-05-30T05:34:07.623Z,953.92
2017-05-30T05:35:07.271Z,953.94
2017-05-30T05:36:07.990Z,953.93
2017-05-30T05:37:07.521Z,953.95
2017-05-30T05:38:08.143Z,953.91
2017-05-30T05:39:07.763Z,953.93
2017-05-30T05:40:07.465Z,953.88
2017-05-30T05:41:08.132Z,953.89
2017-05-30T05:42:07.820Z,953.87
2017-05-30T05:43:07.424Z,953.88
2017-05-30T05:44:08.087Z,953.90
2017-05-30T05:45:07.704Z,953.88
2017-05-30T05:46:07.446Z,953.90
2017-05-30T05:47:08.051Z,953.87
2017-05-30T05:48:07.686Z,953.88
2017-05-30T05:49:07.371Z,953.90
2017-05-30T05:50:08.029Z,953.92
2017-05-30T05:51:07.683Z,953.90
2017-05-30T05:52:07.320Z,953.91
2017-05-30T05:53:07.966Z,953.86
2017-05-30T05:54:07.639Z,953.88
2017-05-30T05:55:07.250Z,953.87
2017-05-30T05:56:07.947Z,953.91
2017-05-30T05:57:07.531Z,953.85
2017-05-30T05:58:07.250Z,953.86
2017-05-30T05:59:07.881Z,953.95
2017-05-30T06:00:07.535Z,953.93
2017-05-30T06:01:08.291Z,953.97
2017-05-30T06:02:07.849Z,953.99
2017-05-30T06:03:07.495Z,954.00
2017-05-30T06:04:08.148Z,953.99
2017-05-30T06:05:07.752Z,954.01
2017-05-30T06:06:07.494Z,954.05
2017-05-30T06:07:08.118Z,954.02
2017-05-30T06:08:07.849Z,954.04
2017-05-30T06:09:07.445Z,954.03
2017-05-30T06:10:08.075Z,954.04
2017-05-30T06:11:07.725Z,954.08
2017-05-30T06:12:07.423Z,954.09
2017-05-30T06:13:08.064Z,954.05
2017-05-30T06:14:07.742Z,954.09
2017-05-30T06:15:07.356Z,954.11
2017-05-30T06:16:08.038Z,954.14
2017-05-30T06:17:07.859Z,954.08
2017-05-30T06:18:07.503Z,954.14
2017-05-30T06:19:08.193Z,954.12
2017-05-30T06:20:07.815Z,954.09
2017-05-30T06:21:07.537Z,954.13
2017-05-30T06:22:08.172Z,954.15
2017-05-30T06:23:07.782Z,954.09
2017-05-30T06:24:07.423Z,954.14
2017-05-30T06:25:08.078Z,954.12
2017-05-30T06:26:07.730Z,954.14
2017-05-30T06:27:07.430Z,954.08
2017-05-30T06:28:08.052Z,954.12
2017-05-30T06:29:07.706Z,954.17
2017-05-30T06:30:07.388Z,954.16
2017-05-30T06:31:08.026Z,954.16
2017-05-30T06:32:07.764Z,954.16
2017-05-30T06:33:07.359Z,954.17
2017-05-30T06:34:07.977Z,954.17
2017-05-30T06:35:07.652Z,954.18
2017-05-30T06:36:07.506Z,954.18
2017-05-30T06:37:08.118Z,954.23
2017-05-30T06:38:07.718Z,954.22
2017-05-30T06:39:07.429Z,954.25
2017-05-30T06:40:08.031Z,954.27
2017-05-30T06:41:07.739Z,954.27
2017-05-30T06:42:07.400Z,954.28
2017-05-30T06:43:08.033Z,954.32
2017-05-30T06:44:07.640Z,954.33
2017-05-30T06:45:07.281Z,954.31
2017-05-30T06:46:07.909Z,954.31
2017-05-30T06:47:07.599Z,954.35
2017-05-30T06:48:08.179Z,954.30
2017-05-30T06:49:07.869Z,954.34
2017-05-30T06:50:07.526Z,954.29
2017-05-30T06:51:08.196Z,954.29
2017-05-30T06:52:07.820Z,954.23
2017-05-30T06:53:07.430Z,954.27
2017-05-30T06:54:08.111Z,954.29
2017-05-30T06:55:07.752Z,954.28
2017-05-30T06:56:07.416Z,954.28
2017-05-30T06:57:08.154Z,954.25
2017-05-30T06:58:07.673Z,954.32
2017-05-30T06:59:07.325Z,954.28
2017-05-30T07:00:07.989Z,954.27
2017-05-30T07:01:07.663Z,954.28
2017-05-30T07:02:07.358Z,954.30
2017-05-30T07:03:07.977Z,954.27
2017-05-30T07:04:07.615Z,954.34
2017-05-30T07:05:07.284Z,954.28
2017-05-30T07:06:08.008Z,954.31
2017-05-30T07:07:07.565Z,954.30
2017-05-30T07:08:07.198Z,954.34
2017-05-30T07:09:07.941Z,954.31
2017-05-30T07:10:07.550Z,954.32
2017-05-30T07:11:08.192Z,954.31
2017-05-30T07:12:07.434Z,954.31
2017-05-30T07:13:08.124Z,954.29
2017-05-30T07:14:07.698Z,954.33
2017-05-30T07:15:07.357Z,954.33
2017-05-30T07:16:07.984Z,954.32
2017-05-30T07:17:07.759Z,954.32
2017-05-30T07:18:07.474Z,954.33
2017-05-30T07:19:08.090Z,954.34
2017-05-30T07:20:07.735Z,954.31
2017-05-30T07:21:07.499Z,954.36
2017-05-30T07:22:08.068Z,954.33
2017-05-30T07:23:07.717Z,954.30
2017-05-30T07:24:07.465Z,954.34
2017-05-30T07:25:08.141Z,954.33
2017-05-30T07:26:07.774Z,954.30
2017-05-30T07:27:07.509Z,954.33
2017-05-30T07:28:08.109Z,954.30
2017-05-30T07:29:07.785Z,954.31
2017-05-30T07:30:07.427Z,954.28
2017-05-30T07:31:08.102Z,954.28
2017-05-30T07:32:07.753Z,954.25
2017-05-30T07:33:07.343Z,954.28
2017-05-30T07:34:08.000Z,954.24
2017-05-30T07:35:07.653Z,954.21
2017-05-30T07:36:07.505Z,954.26
2017-05-30T07:37:08.128Z,954.29
2017-05-30T07:38:07.751Z,954.26
2017-05-30T07:39:07.388Z,954.30
2017-05-30T07:40:08.007Z,954.25
2017-05-30T07:41:07.672Z,954.22
2017-05-30T07:42:07.429Z,954.24
2017-05-30T07:43:07.964Z,954.26
2017-05-30T07:44:07.672Z,954.29
2017-05-30T07:45:07.295Z,954.29
2017-05-30T07:46:07.986Z,954.27
2017-05-30T07:47:07.676Z,954.23
2017-05-30T07:48:07.295Z,954.29
2017-05-30T07:49:07.992Z,954.31
2017-05-30T07:50:07.698Z,954.28
2017-05-30T07:51:07.399Z,954.28
2017-05-30T07:52:07.980Z,954.28
2017-05-30T07:53:07.682Z,954.22
2017-05-30T07:54:07.245Z,954.27
2017-05-30T07:55:07.915Z,954.28
2017-05-30T07:56:07.535Z,954.23
2017-05-30T07:57:08.259Z,954.26
2017-05-30T07:58:07.822Z,954.27
2017-05-30T07:59:07.501Z,954.32
2017-05-30T08:00:07.358Z,954.24
2017-05-30T08:01:08.041Z,954.25
2017-05-30T08:02:07.703Z,954.29
2017-05-30T08:03:07.291Z,954.26
2017-05-30T08:04:07.957Z,954.25
2017-05-30T08:05:07.619Z,954.23
2017-05-30T08:06:07.320Z,954.21
2017-05-30T08:07:08.002Z,954.24
2017-05-30T08:08:07.553Z,954.21
2017-05-30T08:09:08.182Z,954.17
2017-05-30T08:10:07.255Z,954.16
2017-05-30T08:11:07.910Z,954.20
2017-05-30T08:12:07.606Z,954.14
2017-05-30T08:13:08.179Z,954.16
2017-05-30T08:14:07.851Z,954.19
2017-05-30T08:15:07.482Z,954.23
2017-05-30T08:16:08.128Z,954.22
2017-05-30T08:17:07.850Z,954.22
2017-05-30T08:18:07.526Z,954.22
2017-05-30T08:19:08.203Z,954.16
2017-05-30T08:20:07.813Z,954.11
2017-05-30T08:21:07.514Z,954.17
2017-05-30T08:22:08.219Z,954.16
2017-05-30T08:23:07.813Z,954.19
2017-05-30T08:24:07.402Z,954.23
2017-05-30T08:25:08.079Z,954.17
2017-05-30T08:26:07.741Z,954.23
2017-05-30T08:27:07.426Z,954.28
2017-05-30T08:28:08.015Z,954.24
2017-05-30T08:29:07.707Z,954.21
2017-05-30T08:30:07.356Z,954.23
2017-05-30T08:31:07.994Z,954.20
2017-05-30T08:32:07.690Z,954.22
2017-05-30T08:33:07.244Z,954.18
2017-05-30T08:34:07.948Z,954.19
2017-05-30T08:35:07.522Z,954.16
2017-05-30T08:36:08.252Z,954.19
2017-05-30T08:37:07.918Z,954.16
2017-05-30T08:38:07.537Z,954.21
2017-05-30T08:39:08.152Z,954.13
2017-05-30T08:40:07.811Z,954.15
2017-05-30T08:41:07.487Z,954.20
2017-05-30T08:42:08.177Z,954.18
2017-05-30T08:43:07.792Z,954.25
2017-05-30T08:44:07.593Z,954.23
2017-05-30T08:45:07.264Z,954.20
2017-05-30T08:46:07.901Z,954.27
2017-05-30T08:47:07.608Z,954.21
2017-05-30T08:48:08.202Z,954.22
2017-05-30T08:49:07.833Z,954.28
2017-05-30T08:50:07.451Z,954.25
2017-05-30T08:51:08.208Z,954.22
2017-05-30T08:52:07.842Z,954.25
2017-05-30T08:53:07.453Z,954.22
2017-05-30T08:54:08.124Z,954.24
2017-05-30T08:55:07.775Z,954.19
2017-05-30T08:56:07.429Z,954.15
2017-05-30T08:57:08.094Z,954.21
2017-05-30T08:58:07.703Z,954.16
2017-05-30T08:59:07.768Z,954.18
2017-05-30T09:00:07.527Z,954.20
2017-05-30T09:01:08.189Z,954.26
2017-05-30T09:02:07.872Z,954.22
2017-05-30T09:03:07.515Z,954.21
2017-05-30T09:04:08.123Z,954.22
2017-05-30T09:05:07.750Z,954.21
2017-05-30T09:06:07.455Z,954.18
2017-05-30T09:07:08.175Z,954.15
2017-05-30T09:08:07.858Z,954.22
2017-05-30T09:09:07.366Z,954.09
2017-05-30T09:10:07.501Z,954.11
2017-05-30T09:11:08.068Z,954.15
2017-05-30T09:12:07.773Z,954.12
2017-05-30T09:13:07.488Z,954.14
2017-05-30T09:14:07.806Z,954.14
2017-05-30T09:15:07.478Z,954.10
2017-05-30T09:16:08.118Z,954.11
2017-05-30T09:17:07.853Z,954.15
2017-05-30T09:18:07.573Z,954.11
2017-05-30T09:19:08.237Z,954.11
2017-05-30T09:20:07.853Z,954.09
2017-05-30T09:21:07.483Z,954.10
2017-05-30T09:22:08.199Z,954.09
2017-05-30T09:23:07.993Z,954.10
2017-05-30T09:24:07.471Z,954.13
2017-05-30T09:25:08.163Z,954.09
2017-05-30T09:26:07.760Z,954.09
2017-05-30T09:27:07.428Z,954.11
2017-05-30T09:28:08.117Z,954.09
2017-05-30T09:29:07.723Z,954.06
2017-05-30T09:30:14.962Z,954.13
2017-05-30T09:31:08.009Z,954.03
2017-05-30T09:32:17.769Z,954.07
2017-05-30T09:33:07.952Z,954.08
2017-05-30T09:34:07.978Z,954.10
2017-05-30T09:35:07.681Z,954.08
2017-05-30T09:36:07.328Z,954.03
2017-05-30T09:37:08.007Z,954.02
2017-05-30T09:38:07.650Z,954.00
2017-05-30T09:39:07.274Z,953.96
2017-05-30T09:40:07.937Z,953.99
2017-05-30T09:41:07.607Z,953.98
2017-05-30T09:42:07.205Z,954.02
2017-05-30T09:43:07.940Z,954.05
2017-05-30T09:44:07.540Z,954.02
2017-05-30T09:45:08.230Z,954.02
2017-05-30T09:46:07.834Z,954.02
2017-05-30T09:47:07.512Z,954.00
2017-05-30T09:48:15.705Z,954.00
2017-05-30T09:49:07.838Z,954.03
2017-05-30T09:50:07.480Z,954.00
2017-05-30T09:51:09.181Z,953.95
2017-05-30T09:52:17.899Z,953.96
2017-05-30T09:53:17.959Z,953.98
2017-05-30T09:54:08.070Z,954.00
2017-05-30T09:55:07.704Z,953.94
2017-05-30T09:56:07.866Z,953.97
2017-05-30T09:57:07.992Z,953.96
2017-05-30T09:58:07.746Z,953.97
2017-05-30T09:59:07.338Z,953.96
2017-05-30T10:00:08.027Z,953.89
2017-05-30T10:01:07.638Z,953.89
2017-05-30T10:02:07.264Z,953.97
2017-05-30T10:03:08.033Z,953.95
2017-05-30T10:04:07.559Z,954.01
2017-05-30T10:05:07.208Z,953.98
2017-05-30T10:06:07.882Z,953.94
2017-05-30T10:07:07.525Z,953.95
2017-05-30T10:08:08.234Z,953.95
2017-05-30T10:09:07.843Z,953.96
2017-05-30T10:10:08.609Z,953.98
2017-05-30T10:11:08.354Z,953.99
2017-05-30T10:12:07.823Z,954.01
2017-05-30T10:13:07.536Z,953.97
2017-05-30T10:14:08.065Z,954.04
2017-05-30T10:15:07.731Z,954.04
2017-05-30T10:16:07.425Z,954.06
2017-05-30T10:17:08.094Z,954.07
2017-05-30T10:18:07.982Z,954.06
2017-05-30T10:19:07.521Z,954.07
2017-05-30T10:20:08.255Z,954.09
2017-05-30T10:21:07.821Z,954.04
2017-05-30T10:22:07.472Z,954.03
2017-05-30T10:23:08.184Z,954.05
2017-05-30T10:24:07.801Z,954.07
2017-05-30T10:25:07.475Z,954.08
2017-05-30T10:26:08.113Z,954.05
2017-05-30T10:27:07.749Z,954.02
2017-05-30T10:28:07.477Z,954.00
2017-05-30T10:29:08.065Z,954.02
2017-05-30T10:30:07.730Z,954.02
2017-05-30T10:31:07.360Z,954.01
2017-05-30T10:32:08.035Z,954.02
2017-05-30T10:33:15.224Z,953.99
2017-05-30T10:34:07.351Z,954.01
2017-05-30T10:35:07.995Z,954.07
2017-05-30T10:36:08.721Z,954.04
2017-05-30T10:37:07.300Z,954.03
2017-05-30T10:38:07.987Z,954.04
2017-05-30T10:39:07.614Z,954.02
2017-05-30T10:40:07.271Z,954.08
2017-05-30T10:41:07.924Z,954.06
2017-05-30T10:42:07.582Z,954.04
2017-05-30T10:43:07.299Z,954.00
2017-05-30T10:44:08.010Z,954.05
2017-05-30T10:45:07.636Z,953.96
2017-05-30T10:46:07.312Z,954.02
2017-05-30T10:47:07.968Z,953.99
2017-05-30T10:48:08.728Z,954.00
2017-05-30T10:49:07.331Z,953.97
2017-05-30T10:50:07.901Z,954.00
2017-05-30T10:51:07.533Z,954.01
2017-05-30T10:52:08.157Z,953.98
2017-05-30T10:54:08.577Z,954.00
2017-05-30T10:55:08.222Z,953.97
2017-05-30T10:56:07.748Z,953.98
2017-05-30T10:57:07.447Z,953.95
2017-05-30T10:58:18.134Z,953.94
2017-05-30T10:59:07.756Z,953.94
2017-05-30T11:00:07.444Z,953.96
2017-05-30T11:01:08.109Z,953.97
2017-05-30T11:02:08.835Z,953.92
2017-05-30T11:03:07.390Z,953.87
2017-05-30T11:04:08.068Z,953.89
2017-05-30T11:05:07.767Z,953.88
2017-05-30T11:06:07.357Z,953.89
2017-05-30T11:07:07.992Z,953.86
2017-05-30T11:08:07.653Z,953.86
2017-05-30T11:09:07.286Z,953.84
2017-05-30T11:10:07.940Z,953.86
2017-05-30T11:11:07.581Z,953.88
2017-05-30T11:12:08.197Z,953.79
2017-05-30T11:13:07.842Z,953.78
2017-05-30T11:14:07.487Z,953.81
2017-05-30T11:15:08.208Z,953.75
2017-05-30T11:16:07.820Z,953.79
2017-05-30T11:17:07.554Z,953.79
2017-05-30T11:18:07.347Z,953.69
2017-05-30T11:19:08.011Z,953.77
2017-05-30T11:20:07.678Z,953.77
2017-05-30T11:21:07.282Z,953.75
2017-05-30T11:22:07.932Z,953.77
2017-05-30T11:23:07.561Z,953.81
2017-05-30T11:24:07.251Z,953.72
2017-05-30T11:25:07.968Z,953.74
2017-05-30T11:26:07.513Z,953.72
2017-05-30T11:27:08.161Z,953.72
2017-05-30T11:28:07.821Z,953.69
2017-05-30T11:29:07.470Z,953.71
2017-05-30T11:30:08.224Z,953.68
2017-05-30T11:31:07.812Z,953.71
2017-05-30T11:32:07.477Z,953.68
2017-05-30T11:33:08.194Z,953.72
2017-05-30T11:34:07.849Z,953.62
2017-05-30T11:35:07.570Z,953.63
2017-05-30T11:36:08.205Z,953.61
2017-05-30T11:37:07.862Z,953.63
2017-05-30T11:38:07.496Z,953.60
2017-05-30T11:39:08.160Z,953.63
2017-05-30T11:40:07.977Z,953.56
2017-05-30T11:41:07.520Z,953.58
2017-05-30T11:42:08.158Z,953.58
2017-05-30T11:43:07.799Z,953.56
2017-05-30T11:44:07.396Z,953.53
2017-05-30T11:45:08.092Z,953.50
2017-05-30T11:46:07.726Z,953.46
2017-05-30T11:47:07.371Z,953.51
2017-05-30T11:48:08.032Z,953.48
2017-05-30T11:49:07.638Z,953.54
2017-05-30T11:50:07.277Z,953.48
2017-05-30T11:51:07.976Z,953.49
2017-05-30T11:52:07.614Z,953.47
2017-05-30T11:53:07.252Z,953.47
2017-05-30T11:54:07.900Z,953.44
2017-05-30T11:55:07.588Z,953.45
2017-05-30T11:56:07.238Z,953.44
2017-05-30T11:57:07.905Z,953.40
2017-05-30T11:58:07.567Z,953.38
2017-05-30T11:59:07.210Z,953.40
2017-05-30T12:00:07.916Z,953.44
2017-05-30T12:01:08.619Z,953.37
2017-05-30T12:02:08.183Z,953.37
2017-05-30T12:03:07.799Z,953.38
2017-05-30T12:04:07.497Z,953.37
2017-05-30T12:05:08.157Z,953.35
2017-05-30T12:06:07.816Z,953.34
2017-05-30T12:07:07.499Z,953.35
2017-05-30T12:08:08.144Z,953.28
2017-05-30T12:09:07.795Z,953.31
2017-05-30T12:10:07.527Z,953.26
2017-05-30T12:11:08.158Z,953.24
2017-05-30T12:12:07.767Z,953.25
2017-05-30T12:13:07.401Z,953.23
2017-05-30T12:14:08.076Z,953.25
2017-05-30T12:15:08.760Z,953.25
2017-05-30T12:16:07.385Z,953.25
2017-05-30T12:17:08.171Z,953.20
2017-05-30T12:18:07.877Z,953.18
2017-05-30T12:19:07.543Z,953.14
2017-05-30T12:20:08.206Z,953.24
2017-05-30T12:21:07.819Z,953.22
2017-05-30T12:22:07.463Z,953.17
2017-05-30T12:23:08.088Z,953.20
2017-05-30T12:24:07.851Z,953.13
2017-05-30T12:25:07.444Z,953.16
2017-05-30T12:26:08.049Z,953.12
2017-05-30T12:27:07.788Z,953.09
2017-05-30T12:28:07.385Z,953.11
2017-05-30T12:29:08.051Z,953.10